Dirección General De Aeronáutica Civil

Dirección Meteorológica de Chile - Servicios Climáticos

Informe General de Control de Calidad de la Estación

Listado de niveles de control de calidad para algunos parámetros
Estación La Araucanía Ad. (380029)
Fecha de Revisión de los datos :

Elementos

Registros Niveles de Control Total
Nivel 0 Nivel 1 Nivel 2 Nivel 3 Errores Porcentaje
01 Temperatura del Aire Seco 89.768 0 . 0 . 0 . 0 . 0 0.00 %
02 Temperatura de Rocío 89.768 0 . 0 . 0 . 0 . 0 0.00 %
03 Humedad Relativa del Aire 86.730 0 . 0 . 0 . 0 . 0 0.00 %
04 Temperatura Máxima PM 3.650 0 . 0 . 2 0.05 % 0 . 2 0.05 %
05 Temperatura Mínima AM 3.648 0 . 0 . 0 . 0 . 0 0.00 %
06 Viento a 10 m. de Altura 89.769 0 . 1 0.00 % 2 0.00 % 0 . 3 0.00 %
07 Agua Caida, Acumulada 6 Horas 14.490 0 . 410 2.83 % 0 . 0 . 410 2.83 %
08 Presión Atm. a Nivel de Estación (QFE) 86.717 0 . 0 . 0 . 0 . 0 0.00 %
09 Presión Atm. a Nivel Medio del Mar (QFF) 86.695 0 . 0 . 0 . 0 . 0 0.00 %
10 Presión Atm. Estándar OACI (QNH) 89.771 3 0.00 % 0 . 0 . 0 . 3 0.00 %
11 Tiempo Pasado Sinóptico 25.632 0 . 0 . 0 . 0 . 0 0.00 %
12 Tiempo Presente Sinóptico 25.636 0 . 8 0.03 % 0 . 0 . 8 0.03 %

Totales

692.274 . 0.0004 % . 0.0605 % . 0.0006 % . 0.0000 % 426 0.0615 %

Detalle de Errores Encontrados

Nivel Fecha del Dato Descripción Información Error Fecha Ingreso
0 2014-09-19 18:39:00 qnh (Presión a nivel estandar) debe ser numérico, entre 300 y 1100 93.0 2014-09-19 18:42:00
0 2014-11-21 12:41:00 qnh (Presión a nivel estandar) debe ser numérico, entre 300 y 1100 99.0 2014-11-21 12:47:00
0 2014-12-06 15:19:00 qnh (Presión a nivel estandar) debe ser numérico, entre 300 y 1100 89.0 2014-12-06 15:22:00
Errores del Nivel 3
Nivel Fecha del Dato Descripción Información Error Fecha Ingreso
1 2014-08-02 12:00:00 rrr = s/p y WW = 1 w1=5 w2=2 0.0 2014-08-02 11:53:00
1 2014-08-06 00:00:00 rrr = 3.0 y WW = 2 w1=2 w2=2 3.0 2014-08-05 23:51:00
1 2014-08-26 18:00:00 rrr = trazas y WW = 2 w1=1 w2=1 0.0 2014-08-26 17:54:00
1 2014-09-03 18:00:00 rrr = 1.8 y WW = 2 w1=2 w2=2 1.8 2014-09-03 17:52:00
1 2014-09-26 06:00:00 rrr = 1.2 y WW = 3 w1=2 w2=2 1.2 2014-09-26 05:50:00
1 2014-09-28 12:00:00 rrr = s/p y WW = 2 w1=5 w2=2 0.0 2014-09-28 11:59:00
1 2014-10-16 00:00:00 rrr = 0.4 y WW = 2 w1=2 w2=2 0.4 2014-10-15 23:52:00
1 2014-10-29 18:00:00 rrr = 3.4 y WW = 3 w1=1 w2=1 3.4 2014-10-29 17:55:00
1 2014-11-02 06:00:00 rrr = 1.8 y WW = 3 w1=1 w2=1 1.8 2014-11-02 05:53:00
1 2014-11-03 00:00:00 rrr = 4.4 y WW = 2 w1=2 w2=2 4.4 2014-11-02 23:52:00
1 2014-11-19 00:00:00 rrr = 0.2 y WW = 1 w1=0 w2=0 0.2 2014-11-18 23:54:00
1 2014-11-29 12:00:00 rrr = 0.2 y WW = 2 w1=0 w2=0 0.2 2014-11-29 11:52:00
1 2014-12-05 00:00:00 rrr = trazas y WW = 2 w1=2 w2=2 0.0 2014-12-04 23:50:00
1 2014-12-23 18:00:00 rrr = trazas y WW = 2 w1=0 w2=0 0.0 2014-12-23 17:53:00
1 2014-12-30 18:00:00 rrr = 0.4 y WW = 2 w1=2 w2=2 0.4 2014-12-30 17:51:00
1 2015-03-07 18:00:00 rrr = s/p y WW = 1 w1=5 w2=2 0.0 2015-03-07 18:00:00
1 2015-03-17 06:00:00 rrr = s/p y WW = 20 w1=5 w2=5 0.0 2015-03-17 06:00:00
1 2015-03-25 00:00:00 rrr = trazas y WW = 2 w1=1 w2=1 0.0 2015-03-24 23:51:00
1 2015-03-29 12:00:00 rrr = s/p y WW = 2 w1=6 w2=2 0.0 2015-03-29 11:58:00
1 2015-04-04 12:00:00 rrr = s/p y WW = 2 w1=8 w2=2 0.0 2015-04-04 11:52:00
1 2015-04-13 06:00:00 rrr = 1.0 y WW = 2 w1=2 w2=2 1.0 2015-04-13 05:58:00
1 2015-04-17 00:00:00 rrr = 0.4 y WW = 1 w1=2 w2=1 0.4 2015-04-16 23:55:00
1 2015-04-28 06:00:00 rrr = trazas y WW = 4 w1=2 w2=2 0.0 2015-04-28 05:53:00
1 2015-04-28 12:00:00 rrr = s/p y WW = 45 w1=8 w2=4 0.0 2015-04-28 11:59:00
1 2015-04-30 00:00:00 rrr = trazas y WW = 1 w1=2 w2=2 0.0 2015-04-29 23:57:00
1 2015-05-04 06:00:00 rrr = 0.6 y WW = 2 w1=2 w2=2 0.6 2015-05-04 05:51:00
1 2015-05-10 18:00:00 rrr = 0.2 y WW = 1 w1=2 w2=2 0.2 2015-05-10 17:55:00
1 2015-05-15 18:00:00 rrr = s/p y WW = 2 w1=8 w2=2 0.0 2015-05-15 17:52:00
1 2015-06-09 06:00:00 rrr = 2.2 y WW = 2 w1=2 w2=2 2.2 2015-06-09 05:53:00
1 2015-06-18 00:00:00 rrr = trazas y WW = 0 w1=0 w2=0 0.0 2015-06-17 23:54:00
1 2015-06-18 18:00:00 rrr = s/p y WW = 1 w1=5 w2=2 0.0 2015-06-18 17:56:00
1 2015-06-30 12:00:00 rrr = trazas y WW = 10 w1=4 w2=2 0.0 2015-06-30 11:55:00
1 2015-07-07 12:00:00 rrr = s/p y WW = 2 w1=5 w2=3 0.0 2015-07-07 11:57:00
1 2015-07-14 12:00:00 rrr = s/p y WW = 10 w1=8 w2=2 0.0 2015-07-14 11:52:00
1 2015-07-19 00:00:00 rrr = 1.0 y WW = 1 w1=2 w2=2 1.0 2015-07-18 23:53:00
1 2015-07-31 00:00:00 rrr = 2.4 y WW = 1 w1=2 w2=2 2.4 2015-07-31 00:00:00
1 2015-08-05 06:00:00 rrr = 0.4 y WW = 2 w1=2 w2=2 0.4 2015-08-05 05:54:00
1 2015-09-23 18:00:00 rrr = 0.2 y WW = 3 w1=1 w2=1 0.2 2015-09-23 17:56:00
1 2015-09-24 00:00:00 rrr = 3.8 y WW = 2 w1=2 w2=2 3.8 2015-09-23 23:54:00
1 2015-09-25 06:00:00 rrr = 0.4 y WW = 2 w1=2 w2=2 0.4 2015-09-25 05:53:00
1 2015-09-25 18:00:00 rrr = 1.0 y WW = 2 w1=2 w2=2 1.0 2015-09-25 17:55:00
1 2015-09-26 18:00:00 rrr = 0.4 y WW = 2 w1=2 w2=2 0.4 2015-09-26 17:54:00
1 2015-09-29 18:00:00 rrr = 1.2 y WW = 2 w1=2 w2=2 1.2 2015-09-29 17:51:00
1 2015-10-05 18:00:00 rrr = 4.4 y WW = 2 w1=1 w2=1 4.4 2015-10-05 17:51:00
1 2015-10-15 18:00:00 rrr = 0.4 y WW = 2 w1=2 w2=2 0.4 2015-10-15 17:51:00
1 2015-10-26 06:00:00 rrr = trazas y WW = 2 w1=2 w2=2 0.0 2015-10-26 05:54:00
1 2015-11-16 00:00:00 rrr = trazas y WW = 2 w1=1 w2=1 0.0 2015-11-15 23:51:00
1 2015-11-19 00:00:00 rrr = 4.4 y WW = 1 w1=2 w2=2 4.4 2015-11-18 23:51:00
1 2015-11-22 06:00:00 rrr = trazas y WW = 2 w1=2 w2=2 0.0 2015-11-22 05:53:00
1 2015-11-22 12:00:00 rrr = trazas y WW = 2 w1=2 w2=2 0.0 2015-11-22 11:54:00
1 2015-12-13 00:00:00 rrr = s/p y WW = 61 w1=2 w2=2 0.0 2015-12-12 23:51:00
1 2015-12-22 00:00:00 rrr = 3.0 y WW = 2 w1=2 w2=2 3.0 2015-12-21 23:53:00
1 2015-12-23 12:00:00 rrr = s/p y WW = 1 w1=8 w2=2 0.0 2015-12-23 11:57:00
1 2016-02-12 12:00:00 rrr = trazas y WW = 2 w1=2 w2=2 0.0 2016-02-12 11:55:00
1 2016-02-12 18:00:00 rrr = trazas y WW = 2 w1=2 w2=2 0.0 2016-02-12 17:51:00
1 2016-03-24 00:00:00 rrr = trazas y WW = 1 w1=1 w2=1 0.0 2016-03-23 23:59:00
1 2016-03-30 18:00:00 rrr = 0.2 y WW = 1 w1=2 w2=2 0.2 2016-03-30 17:52:00
1 2016-04-11 00:00:00 rrr = trazas y WW = 2 w1=0 w2=0 0.0 2016-04-10 23:56:00
1 2016-04-15 06:00:00 rrr = 0.2 y WW = 2 w1=2 w2=2 0.2 2016-04-15 05:55:00
1 2016-04-15 18:00:00 rrr = 5.6 y WW = 2 w1=1 w2=1 5.6 2016-04-15 18:00:00
1 2016-04-24 18:00:00 rrr = 0.2 y WW = 2 w1=0 w2=0 0.2 2016-04-24 23:39:00
1 2016-05-02 06:00:00 rrr = 2.4 y WW = 2 w1=2 w2=2 2.4 2016-05-02 05:52:00
1 2016-05-05 18:00:00 rrr = 0.2 y WW = 10 w1=4 w2=2 0.2 2016-05-05 17:53:00
1 2016-05-06 06:00:00 rrr = s/p y WW = 10 w1=6 w2=6 0.0 2016-05-06 05:53:00
1 2016-05-06 12:00:00 rrr = 2.4 y WW = 11 w1=4 w2=2 2.4 2016-05-06 14:44:00
1 2016-05-08 18:00:00 rrr = 0.4 y WW = 3 w1=2 w2=2 0.4 2016-05-08 17:56:00
1 2016-05-11 18:00:00 rrr = 0.2 y WW = 2 w1=2 w2=2 0.2 2016-05-11 17:54:00
1 2016-05-15 00:00:00 rrr = 0.4 y WW = 2 w1=4 w2=4 0.4 2016-05-14 23:55:00
1 2016-05-25 18:00:00 rrr = s/p y WW = 1 w1=8 w2=2 0.0 2016-05-25 17:53:00
1 2016-06-02 18:00:00 rrr = s/p y WW = 2 w1=7 w2=0 0.0 2016-06-02 17:53:00
1 2016-06-05 18:00:00 rrr = trazas y WW = 0 w1=4 w2=0 0.0 2016-06-05 17:56:00
1 2016-06-07 06:00:00 rrr = s/p y WW = 0 w1=6 w2=6 0.0 2016-06-07 05:57:00
1 2016-06-07 18:00:00 rrr = s/p y WW = 2 w1=5 w2=2 0.0 2016-06-07 17:53:00
1 2016-06-13 18:00:00 rrr = 0.6 y WW = 2 w1=2 w2=2 0.6 2016-06-13 17:51:00
1 2016-06-15 06:00:00 rrr = trazas y WW = 2 w1=4 w2=2 0.0 2016-06-15 05:53:00
1 2016-07-09 12:00:00 rrr = 0.1 y WW = 2 w1=2 w2=2 0.1 2016-07-09 11:53:00
1 2016-07-12 06:00:00 rrr = 1.0 y WW = 3 w1=2 w2=2 1.0 2016-07-12 05:53:00
1 2016-07-15 00:00:00 rrr = 5.0 y WW = 1 w1=1 w2=1 5.0 2016-07-14 23:51:00
1 2016-07-15 06:00:00 rrr = 0.8 y WW = 10 w1=2 w2=2 0.8 2016-07-15 05:52:00
1 2016-07-15 12:00:00 rrr = 0.2 y WW = 10 w1=2 w2=2 0.2 2016-07-15 11:52:00
1 2016-07-21 18:00:00 rrr = 0.2 y WW = 2 w1=2 w2=2 0.2 2016-07-21 17:52:00
1 2016-07-24 00:00:00 rrr = 0.2 y WW = 2 w1=2 w2=2 0.2 2016-07-23 23:54:00
1 2016-07-28 18:00:00 rrr = 0.2 y WW = 2 w1=2 w2=2 0.2 2016-07-28 17:52:00
1 2016-07-29 00:00:00 rrr = 5.4 y WW = 2 w1=1 w2=1 5.4 2016-07-28 23:51:00
1 2016-07-30 00:00:00 rrr = 1.2 y WW = 1 w1=1 w2=0 1.2 2016-07-29 23:54:00
1 2016-07-31 06:00:00 rrr = 0.2 y WW = 2 w1=2 w2=2 0.2 2016-07-31 05:57:00
1 2016-08-04 00:00:00 rrr = 1.2 y WW = 2 w1=2 w2=2 1.2 2016-08-03 23:51:00
1 2016-08-05 06:00:00 rrr = 2.1 y WW = 10 w1=2 w2=2 2.1 2016-08-05 05:53:00
1 2016-08-06 06:00:00 rrr = 0.2 y WW = 2 w1=2 w2=2 0.2 2016-08-06 05:54:00
1 2016-08-10 18:00:00 rrr = 0.2 y WW = 10 w1=4 w2=2 0.2 2016-08-10 17:56:00
1 2016-08-18 18:00:00 rrr = 1.4 y WW = 3 w1=1 w2=1 1.4 2016-08-18 17:54:00
1 2016-08-20 12:00:00 rrr = trazas y WW = 10 w1=0 w2=0 0.0 2016-08-20 11:55:00
1 2016-08-25 06:00:00 rrr = trazas y WW = 2 w1=2 w2=2 0.0 2016-08-25 05:53:00
1 2016-08-26 00:00:00 rrr = 0.4 y WW = 2 w1=2 w2=2 0.4 2016-08-25 23:55:00
1 2016-08-26 06:00:00 rrr = 0.8 y WW = 0 w1=0 w2=0 0.8 2016-08-26 11:47:00
1 2016-08-26 12:00:00 rrr = 1.4 y WW = 10 w1=2 w2=2 1.4 2016-08-26 11:56:00
1 2016-08-29 18:00:00 rrr = trazas y WW = 3 w1=2 w2=2 0.0 2016-08-29 17:57:00
1 2016-09-12 00:00:00 rrr = 1.8 y WW = 2 w1=2 w2=2 1.8 2016-09-11 23:51:00
1 2016-09-12 06:00:00 rrr = 1.4 y WW = 2 w1=2 w2=2 1.4 2016-09-12 05:56:00
1 2016-10-04 06:00:00 rrr = 0.8 y WW = 2 w1=1 w2=1 0.8 2016-10-04 05:58:00
1 2016-10-16 12:00:00 rrr = s/p y WW = 2 w1=8 w2=2 0.0 2016-10-16 11:56:00
1 2016-11-04 06:00:00 rrr = trazas y WW = 2 w1=2 w2=2 0.0 2016-11-04 05:56:00
1 2016-11-11 06:00:00 rrr = trazas y WW = 0 w1=0 w2=0 0.0 2016-11-11 05:53:00
1 2016-11-14 06:00:00 rrr = 1.6 y WW = 2 w1=2 w2=2 1.6 2016-11-14 05:54:00
1 2016-11-17 06:00:00 rrr = trazas y WW = 2 w1=0 w2=0 0.0 2016-11-17 05:53:00
1 2016-11-21 18:00:00 rrr = trazas y WW = 2 w1=0 w2=0 0.0 2016-11-21 17:58:00
1 2016-11-22 06:00:00 rrr = trazas y WW = 2 w1=0 w2=0 0.0 2016-11-22 05:55:00
1 2016-11-27 00:00:00 rrr = 2.2 y WW = 2 w1=2 w2=2 2.2 2016-11-26 23:51:00
1 2016-11-29 06:00:00 rrr = trazas y WW = 0 w1=0 w2=0 0.0 2016-11-29 05:54:00
1 2016-12-03 12:00:00 rrr = trazas y WW = 2 w1=2 w2=2 0.0 2016-12-03 11:58:00
1 2016-12-13 18:00:00 rrr = trazas y WW = 2 w1=0 w2=0 0.0 2016-12-13 17:54:00
1 2016-12-17 06:00:00 rrr = s/p y WW = 2 w1=5 w2=2 0.0 2016-12-17 05:55:00
1 2017-01-04 00:00:00 rrr = 0.2 y WW = 1 w1=0 w2=0 0.2 2017-01-03 23:53:00
1 2017-01-06 00:00:00 rrr = trazas y WW = 1 w1=1 w2=1 0.0 2017-01-05 23:50:00
1 2017-01-08 00:00:00 rrr = 0.4 y WW = 2 w1=2 w2=2 0.4 2017-01-07 23:51:00
1 2017-01-09 06:00:00 rrr = 7.8 y WW = 2 w1=2 w2=2 7.8 2017-01-09 05:52:00
1 2017-01-12 00:00:00 rrr = trazas y WW = 0 w1=0 w2=0 0.0 2017-01-11 23:53:00
1 2017-01-12 18:00:00 rrr = s/p y WW = 2 w1=8 w2=2 0.0 2017-01-12 17:54:00
1 2017-01-15 06:00:00 rrr = trazas y WW = 2 w1=0 w2=0 0.0 2017-01-15 05:53:00
1 2017-02-04 06:00:00 rrr = s/p y WW = 28 w1=6 w2=0 0.0 2017-02-04 05:56:00
1 2017-02-11 06:00:00 rrr = trazas y WW = 0 w1=0 w2=0 0.0 2017-02-11 05:54:00
1 2017-02-15 18:00:00 rrr = s/p y WW = 1 w1=5 w2=1 0.0 2017-02-15 17:51:00
1 2017-02-16 06:00:00 rrr = trazas y WW = 2 w1=2 w2=0 0.0 2017-02-16 05:52:00
1 2017-02-20 00:00:00 rrr = s/p y WW = 2 w1=8 w2=2 0.0 2017-02-19 23:51:00
1 2017-03-02 12:00:00 rrr = s/p y WW = 80 w1=8 w2=2 0.0 2017-03-02 11:54:00
1 2017-03-02 18:00:00 rrr = 0.4 y WW = 3 w1=0 w2=0 0.4 2017-03-02 17:53:00
1 2017-03-11 12:00:00 rrr = 0.6 y WW = 10 w1=2 w2=2 0.6 2017-03-11 11:53:00
1 2017-03-25 06:00:00 rrr = 0.2 y WW = 10 w1=4 w2=2 0.2 2017-03-25 10:56:00
1 2017-03-27 00:00:00 rrr = 0.2 y WW = 2 w1=2 w2=2 0.2 2017-03-26 23:54:00
1 2017-03-27 12:00:00 rrr = 0.6 y WW = 11 w1=4 w2=4 0.6 2017-03-27 11:58:00
1 2017-04-03 00:00:00 rrr = 2.8 y WW = 1 w1=2 w2=2 2.8 2017-04-02 23:53:00
1 2017-04-04 18:00:00 rrr = 0.4 y WW = 2 w1=2 w2=2 0.4 2017-04-04 17:53:00
1 2017-04-05 12:00:00 rrr = s/p y WW = 10 w1=8 w2=2 0.0 2017-04-05 12:06:00
1 2017-04-12 00:00:00 rrr = trazas y WW = 1 w1=1 w2=1 0.0 2017-04-11 23:52:00
1 2017-04-15 00:00:00 rrr = 0.2 y WW = 2 w1=2 w2=2 0.2 2017-04-14 23:53:00
1 2017-04-19 12:00:00 rrr = 0.8 y WW = 14 w1=3 w2=2 0.8 2017-04-19 11:56:00
1 2017-04-26 12:00:00 rrr = s/p y WW = 51 w1=8 w2=5 0.0 2017-04-26 12:00:00
1 2017-04-28 18:00:00 rrr = 0.8 y WW = 2 w1=2 w2=2 0.8 2017-04-28 17:55:00
1 2017-05-10 06:00:00 rrr = trazas y WW = 0 w1=0 w2=0 0.0 2017-05-10 05:52:00
1 2017-05-10 18:00:00 rrr = trazas y WW = 2 w1=2 w2=2 0.0 2017-05-10 17:52:00
1 2017-05-11 00:00:00 rrr = 1.0 y WW = 2 w1=2 w2=2 1.0 2017-05-10 23:51:00
1 2017-05-14 00:00:00 rrr = 0.4 y WW = 2 w1=2 w2=2 0.4 2017-05-13 23:52:00
1 2017-05-15 00:00:00 rrr = trazas y WW = 2 w1=1 w2=1 0.0 2017-05-14 23:57:00
1 2017-05-21 18:00:00 rrr = 1.8 y WW = 1 w1=2 w2=2 1.8 2017-05-21 17:53:00
1 2017-06-15 12:00:00 rrr = s/p y WW = 2 w1=8 w2=2 0.0 2017-06-15 11:53:00
1 2017-06-18 00:00:00 rrr = 1.4 y WW = 2 w1=0 w2=0 1.4 2017-06-17 23:52:00
1 2017-06-23 00:00:00 rrr = 4.8 y WW = 2 w1=2 w2=2 4.8 2017-06-22 23:51:00
1 2017-06-25 06:00:00 rrr = 0.6 y WW = 1 w1=2 w2=2 0.6 2017-06-25 05:55:00
1 2017-06-27 12:00:00 rrr = 0.4 y WW = 10 w1=4 w2=4 0.4 2017-06-27 11:54:00
1 2017-07-03 06:00:00 rrr = trazas y WW = 2 w1=0 w2=0 0.0 2017-07-03 05:55:00
1 2017-07-04 06:00:00 rrr = 1.2 y WW = 2 w1=2 w2=2 1.2 2017-07-04 05:54:00
1 2017-07-07 12:00:00 rrr = 0.6 y WW = 2 w1=2 w2=2 0.6 2017-07-07 11:54:00
1 2017-07-13 06:00:00 rrr = 6.6 y WW = 2 w1=2 w2=2 6.6 2017-07-13 05:54:00
1 2017-07-13 18:00:00 rrr = 0.2 y WW = 3 w1=1 w2=1 0.2 2017-07-13 17:56:00
1 2017-07-14 06:00:00 rrr = trazas y WW = 2 w1=2 w2=2 0.0 2017-07-14 05:53:00
1 2017-07-22 06:00:00 rrr = 0.2 y WW = 10 w1=4 w2=4 0.2 2017-07-22 05:55:00
1 2017-07-28 06:00:00 rrr = 1.0 y WW = 2 w1=2 w2=2 1.0 2017-07-28 05:55:00
1 2017-08-09 00:00:00 rrr = 0.8 y WW = 2 w1=2 w2=2 0.8 2017-08-08 23:56:00
1 2017-08-12 06:00:00 rrr = 0.6 y WW = 10 w1=4 w2=1 0.6 2017-08-12 05:53:00
1 2017-08-23 06:00:00 rrr = 0.2 y WW = 1 w1=2 w2=2 0.2 2017-08-23 05:53:00
1 2017-08-28 00:00:00 rrr = 1.6 y WW = 2 w1=2 w2=2 1.6 2017-08-27 23:53:00
1 2017-09-02 06:00:00 rrr = s/p y WW = 2 w1=8 w2=2 0.0 2017-09-02 05:58:00
1 2017-09-03 00:00:00 rrr = trazas y WW = 3 w1=0 w2=0 0.0 2017-09-02 23:54:00
1 2017-09-11 12:00:00 rrr = trazas y WW = 2 w1=2 w2=2 0.0 2017-09-11 12:00:00
1 2017-09-19 12:00:00 rrr = 0.6 y WW = 2 w1=2 w2=2 0.6 2017-09-19 11:54:00
1 2017-09-30 12:00:00 rrr = 3.9 y WW = 1 w1=1 w2=1 3.9 2017-09-30 11:57:00
1 2017-09-30 18:00:00 rrr = 3.8 y WW = 2 w1=2 w2=2 3.8 2017-09-30 17:55:00
1 2017-10-02 12:00:00 rrr = s/p y WW = 2 w1=8 w2=2 0.0 2017-10-02 11:53:00
1 2017-10-04 18:00:00 rrr = s/p y WW = 2 w1=8 w2=2 0.0 2017-10-04 17:57:00
1 2017-10-06 00:00:00 rrr = 1.4 y WW = 2 w1=2 w2=2 1.4 2017-10-05 23:56:00
1 2017-10-09 12:00:00 rrr = 0.8 y WW = 2 w1=2 w2=2 0.8 2017-10-09 11:54:00
1 2017-10-11 00:00:00 rrr = 8.4 y WW = 2 w1=2 w2=2 8.4 2017-10-10 23:54:00
1 2017-10-24 00:00:00 rrr = 1.6 y WW = 1 w1=2 w2=2 1.6 2017-10-23 23:55:00
1 2017-11-03 00:00:00 rrr = 7.4 y WW = 2 w1=2 w2=2 7.4 2017-11-02 23:52:00
1 2017-11-03 06:00:00 rrr = 1.8 y WW = 2 w1=2 w2=2 1.8 2017-11-03 05:57:00
1 2017-11-03 12:00:00 rrr = s/p y WW = 2 w1=8 w2=2 0.0 2017-11-03 11:54:00
1 2017-11-04 00:00:00 rrr = 1.4 y WW = 1 w1=1 w2=1 1.4 2017-11-03 23:52:00
1 2017-11-05 06:00:00 rrr = 1.4 y WW = 2 w1=2 w2=2 1.4 2017-11-05 05:55:00
1 2017-11-07 06:00:00 rrr = trazas y WW = 2 w1=2 w2=2 0.0 2017-11-07 05:53:00
1 2017-11-15 18:00:00 rrr = 1.4 y WW = 1 w1=2 w2=2 1.4 2017-11-15 17:53:00
1 2017-12-06 12:00:00 rrr = s/p y WW = 10 w1=5 w2=2 0.0 2017-12-06 11:51:00
1 2017-12-22 18:00:00 rrr = 0.4 y WW = 2 w1=1 w2=1 0.4 2017-12-22 17:52:00
1 2018-01-04 12:00:00 rrr = 2.4 y WW = 2 w1=2 w2=2 2.4 2018-01-04 11:56:00
1 2018-02-06 18:00:00 rrr = 0.4 y WW = 1 w1=2 w2=2 0.4 2018-02-06 17:57:00
1 2018-02-20 06:00:00 rrr = 2.0 y WW = 2 w1=2 w2=2 2.0 2018-02-20 10:21:00
1 2018-02-22 00:00:00 rrr = 0.2 y WW = 2 w1=2 w2=2 0.2 2018-02-21 23:49:00
1 2018-02-23 06:00:00 rrr = 0.2 y WW = 10 w1=2 w2=2 0.2 2018-02-23 10:47:00
1 2018-03-14 18:00:00 rrr = 3.2 y WW = 1 w1=1 w2=1 3.2 2018-03-14 17:52:00
1 2018-03-18 00:00:00 rrr = 2.2 y WW = 1 w1=2 w2=1 2.2 2018-03-17 23:56:00
1 2018-03-23 18:00:00 rrr = 0.6 y WW = 1 w1=2 w2=2 0.6 2018-03-23 17:53:00
1 2018-03-30 06:00:00 rrr = trazas y WW = 1 w1=0 w2=0 0.0 2018-03-30 05:54:00
1 2018-04-10 00:00:00 rrr = 2.4 y WW = 2 w1=2 w2=2 2.4 2018-04-09 23:51:00
1 2018-04-11 06:00:00 rrr = 6.0 y WW = 2 w1=2 w2=2 6.0 2018-04-11 05:57:00
1 2018-04-11 18:00:00 rrr = 0.6 y WW = 2 w1=2 w2=2 0.6 2018-04-11 19:05:00
1 2018-04-17 00:00:00 rrr = 0.8 y WW = 1 w1=1 w2=1 0.8 2018-04-16 23:51:00
1 2018-04-27 00:00:00 rrr = 1.2 y WW = 1 w1=2 w2=2 1.2 2018-04-26 23:54:00
1 2018-05-03 06:00:00 rrr = 0.8 y WW = 10 w1=2 w2=2 0.8 2018-05-03 05:55:00
1 2018-05-07 06:00:00 rrr = 1.0 y WW = 10 w1=2 w2=2 1.0 2018-05-07 05:54:00
1 2018-05-13 18:00:00 rrr = 6.8 y WW = 1 w1=1 w2=1 6.8 2018-05-13 17:51:00
1 2018-05-14 12:00:00 rrr = 0.8 y WW = 1 w1=2 w2=2 0.8 2018-05-14 11:53:00
1 2018-05-20 12:00:00 rrr = 2.2 y WW = 10 w1=2 w2=2 2.2 2018-05-23 02:13:00
1 2018-05-27 18:00:00 rrr = s/p y WW = 61 w1=2 w2=2 0.0 2018-05-27 17:52:00
1 2018-05-28 18:00:00 rrr = s/p y WW = 2 w1=8 w2=2 0.0 2018-05-28 17:51:00
1 2018-05-30 00:00:00 rrr = 1.2 y WW = 10 w1=0 w2=0 1.2 2018-05-29 23:54:00
1 2018-06-08 12:00:00 rrr = 0.8 y WW = 11 w1=4 w2=2 0.8 2018-06-08 11:52:00
1 2018-06-11 00:00:00 rrr = 0.2 y WW = 2 w1=2 w2=0 0.2 2018-06-10 23:55:00
1 2018-06-21 00:00:00 rrr = s/p y WW = 25 w1=2 w2=2 0.0 2018-06-20 23:54:00
1 2018-06-23 00:00:00 rrr = s/p y WW = 80 w1=8 w2=8 0.0 2018-06-22 23:55:00
1 2018-06-25 18:00:00 rrr = 0.6 y WW = 2 w1=2 w2=2 0.6 2018-06-25 17:56:00
1 2018-06-30 12:00:00 rrr = 0.4 y WW = 2 w1=2 w2=2 0.4 2018-06-30 11:57:00
1 2018-07-01 18:00:00 rrr = 0.6 y WW = 1 w1=2 w2=2 0.6 2018-07-01 17:54:00
1 2018-07-02 18:00:00 rrr = s/p y WW = 2 w1=5 w2=2 0.0 2018-07-02 17:57:00
1 2018-07-06 00:00:00 rrr = 0.6 y WW = 2 w1=2 w2=2 0.6 2018-07-07 04:16:00
1 2018-07-08 06:00:00 rrr = trazas y WW = 10 w1=4 w2=4 0.0 2018-07-08 05:56:00
1 2018-07-22 18:00:00 rrr = 0.2 y WW = 3 w1=2 w2=1 0.2 2018-07-22 17:52:00
1 2018-07-23 00:00:00 rrr = 0.2 y WW = 0 w1=1 w2=0 0.2 2018-07-22 23:53:00
1 2018-07-28 06:00:00 rrr = s/p y WW = 10 w1=7 w2=2 0.0 2018-07-28 05:52:00
1 2018-07-29 18:00:00 rrr = trazas y WW = 2 w1=2 w2=2 0.0 2018-07-29 17:52:00
1 2018-08-04 00:00:00 rrr = 1.2 y WW = 2 w1=2 w2=2 1.2 2018-08-03 23:55:00
1 2018-08-06 12:00:00 rrr = 11.6 y WW = 2 w1=2 w2=2 11.6 2018-08-06 11:54:00
1 2018-08-10 06:00:00 rrr = 0.8 y WW = 10 w1=2 w2=2 0.8 2018-08-10 05:55:00
1 2018-08-13 18:00:00 rrr = 0.4 y WW = 1 w1=2 w2=2 0.4 2018-08-13 17:57:00
1 2018-08-18 06:00:00 rrr = 1.0 y WW = 1 w1=2 w2=0 1.0 2018-08-18 05:53:00
1 2018-08-28 18:00:00 rrr = 0.4 y WW = 2 w1=2 w2=2 0.4 2018-08-28 17:53:00
1 2018-09-03 00:00:00 rrr = 2.8 y WW = 10 w1=0 w2=0 2.8 2018-09-02 23:53:00
1 2018-09-10 18:00:00 rrr = trazas y WW = 1 w1=4 w2=4 0.0 2018-09-10 17:53:00
1 2018-09-21 18:00:00 rrr = 0.2 y WW = 2 w1=2 w2=2 0.2 2018-09-21 17:51:00
1 2018-09-27 06:00:00 rrr = s/p y WW = 80 w1=8 w2=2 0.0 2018-09-27 05:55:00
1 2018-09-27 18:00:00 rrr = trazas y WW = 2 w1=2 w2=2 0.0 2018-09-27 17:50:00
1 2018-09-28 00:00:00 rrr = s/p y WW = 80 w1=8 w2=2 0.0 2018-09-28 10:41:00
1 2018-10-01 06:00:00 rrr = 1.0 y WW = 2 w1=2 w2=2 1.0 2018-10-01 05:53:00
1 2018-10-06 00:00:00 rrr = trazas y WW = 0 w1=2 w2=2 0.0 2018-10-05 23:56:00
1 2018-10-06 18:00:00 rrr = s/p y WW = 2 w1=5 w2=2 0.0 2018-10-06 17:56:00
1 2018-10-09 18:00:00 rrr = 0.4 y WW = 1 w1=1 w2=1 0.4 2018-10-09 17:52:00
1 2018-10-10 06:00:00 rrr = trazas y WW = 2 w1=0 w2=0 0.0 2018-10-10 05:52:00
1 2018-10-13 18:00:00 rrr = trazas y WW = 0 w1=0 w2=0 0.0 2018-10-13 17:54:00
1 2018-10-21 18:00:00 rrr = trazas y WW = 2 w1=2 w2=2 0.0 2018-10-21 17:56:00
1 2018-10-30 00:00:00 rrr = 2.2 y WW = 1 w1=2 w2=2 2.2 2018-10-29 23:53:00
1 2018-10-30 12:00:00 rrr = 0.6 y WW = 1 w1=2 w2=2 0.6 2018-10-30 11:58:00
1 2018-11-05 00:00:00 rrr = 1.0 y WW = 2 w1=2 w2=2 1.0 2018-11-04 23:55:00
1 2018-11-10 06:00:00 rrr = 0.2 y WW = 2 w1=2 w2=2 0.2 2018-11-10 05:53:00
1 2018-11-11 06:00:00 rrr = 0.2 y WW = 11 w1=0 w2=0 0.2 2018-11-11 05:53:00
1 2018-11-13 18:00:00 rrr = trazas y WW = 2 w1=2 w2=2 0.0 2018-11-13 17:52:00
1 2018-11-15 06:00:00 rrr = 2.4 y WW = 1 w1=2 w2=2 2.4 2018-11-15 05:52:00
1 2018-11-17 00:00:00 rrr = s/p y WW = 2 w1=8 w2=6 0.0 2018-11-16 23:58:00
1 2018-11-17 06:00:00 rrr = 0.6 y WW = 10 w1=2 w2=2 0.6 2018-11-17 05:54:00
1 2018-11-17 18:00:00 rrr = 2.2 y WW = 1 w1=2 w2=2 2.2 2018-11-18 11:30:00
1 2018-11-22 00:00:00 rrr = s/p y WW = 80 w1=8 w2=6 0.0 2018-11-25 11:46:00
1 2018-11-22 06:00:00 rrr = s/p y WW = 2 w1=8 w2=6 0.0 2018-11-22 05:53:00
1 2018-11-29 18:00:00 rrr = trazas y WW = 2 w1=2 w2=2 0.0 2018-11-29 17:58:00
1 2018-12-09 12:00:00 rrr = trazas y WW = 2 w1=2 w2=2 0.0 2018-12-09 11:56:00
1 2018-12-14 06:00:00 rrr = 2.1 y WW = 2 w1=2 w2=2 2.1 2018-12-14 05:54:00
1 2018-12-20 00:00:00 rrr = 0.2 y WW = 3 w1=2 w2=0 0.2 2018-12-19 23:53:00
1 2018-12-21 12:00:00 rrr = trazas y WW = 10 w1=4 w2=4 0.0 2018-12-21 11:59:00
1 2018-12-30 00:00:00 rrr = 0.2 y WW = 1 w1=2 w2=1 0.2 2018-12-29 23:54:00
1 2019-01-16 12:00:00 rrr = 0.2 y WW = 1 w1=1 w2=0 0.2 2019-01-16 11:53:00
1 2019-01-21 12:00:00 rrr = s/p y WW = 44 w1=5 w2=4 0.0 2019-01-21 11:56:00
1 2019-02-11 00:00:00 rrr = 3.8 y WW = 1 w1=0 w2=0 3.8 2019-02-11 11:41:00
1 2019-02-18 18:00:00 rrr = s/p y WW = 2 w1=8 w2=2 0.0 2019-02-18 17:56:00
1 2019-02-19 18:00:00 rrr = 0.2 y WW = 2 w1=2 w2=2 0.2 2019-02-19 17:54:00
1 2019-02-21 06:00:00 rrr = trazas y WW = 2 w1=2 w2=2 0.0 2019-02-21 05:52:00
1 2019-02-22 12:00:00 rrr = 0.2 y WW = 1 w1=2 w2=2 0.2 2019-02-22 11:55:00
1 2019-03-01 18:00:00 rrr = 0.4 y WW = 1 w1=2 w2=2 0.4 2019-03-01 17:50:00
1 2019-03-03 18:00:00 rrr = trazas y WW = 2 w1=2 w2=2 0.0 2019-03-03 17:53:00
1 2019-03-04 18:00:00 rrr = 0.2 y WW = 2 w1=2 w2=2 0.2 2019-03-04 17:52:00
1 2019-03-07 18:00:00 rrr = trazas y WW = 2 w1=2 w2=2 0.0 2019-03-07 17:52:00
1 2019-03-10 18:00:00 rrr = trazas y WW = 0 w1=0 w2=0 0.0 2019-03-10 17:53:00
1 2019-03-11 00:00:00 rrr = trazas y WW = 0 w1=0 w2=0 0.0 2019-03-10 23:54:00
1 2019-03-18 00:00:00 rrr = trazas y WW = 2 w1=1 w2=1 0.0 2019-03-17 23:48:00
1 2019-04-04 06:00:00 rrr = 0.8 y WW = 3 w1=2 w2=2 0.8 2019-04-04 05:53:00
1 2019-04-08 18:00:00 rrr = 0.2 y WW = 2 w1=2 w2=2 0.2 2019-04-08 17:54:00
1 2019-04-14 12:00:00 rrr = s/p y WW = 2 w1=8 w2=6 0.0 2019-04-14 11:57:00
1 2019-04-28 18:00:00 rrr = 0.4 y WW = 2 w1=2 w2=2 0.4 2019-04-28 17:54:00
1 2019-04-29 12:00:00 rrr = s/p y WW = 10 w1=5 w2=4 0.0 2019-04-29 11:56:00
1 2019-05-10 06:00:00 rrr = 0.8 y WW = 10 w1=2 w2=2 0.8 2019-05-10 05:55:00
1 2019-05-13 12:00:00 rrr = s/p y WW = 1 w1=6 w2=4 0.0 2019-05-13 11:56:00
1 2019-05-18 00:00:00 rrr = 0.2 y WW = 1 w1=2 w2=2 0.2 2019-05-17 23:51:00
1 2019-05-20 00:00:00 rrr = 1.6 y WW = 10 w1=0 w2=0 1.6 2019-05-19 23:51:00
1 2019-05-31 00:00:00 rrr = 2.4 y WW = 2 w1=2 w2=2 2.4 2019-05-30 23:57:00
1 2019-05-31 12:00:00 rrr = 0.8 y WW = 2 w1=2 w2=2 0.8 2019-05-31 11:54:00
1 2019-06-03 00:00:00 rrr = 0.6 y WW = 0 w1=1 w2=1 0.6 2019-06-02 23:55:00
1 2019-06-04 18:00:00 rrr = 7.2 y WW = 2 w1=2 w2=2 7.2 2019-06-04 17:54:00
1 2019-06-06 12:00:00 rrr = 3.0 y WW = 3 w1=2 w2=2 3.0 2019-06-06 11:51:00
1 2019-06-08 06:00:00 rrr = 0.4 y WW = 2 w1=2 w2=2 0.4 2019-06-08 05:51:00
1 2019-06-10 06:00:00 rrr = 0.4 y WW = 10 w1=2 w2=2 0.4 2019-06-11 23:08:00
1 2019-06-21 18:00:00 rrr = s/p y WW = 1 w1=6 w2=1 0.0 2019-06-21 17:53:00
1 2019-06-22 06:00:00 rrr = 0.6 y WW = 2 w1=2 w2=2 0.6 2019-06-22 05:47:00
1 2019-06-24 00:00:00 rrr = 0.2 y WW = 2 w1=2 w2=2 0.2 2019-06-23 23:51:00
1 2019-06-25 00:00:00 rrr = s/p y WW = 2 w1=8 w2=8 0.0 2019-06-24 23:49:00
1 2019-06-30 18:00:00 rrr = 0.2 y WW = 2 w1=2 w2=2 0.2 2019-06-30 17:50:00
1 2019-07-02 12:00:00 rrr = 0.8 y WW = 2 w1=2 w2=2 0.8 2019-07-02 11:53:00
1 2019-07-03 18:00:00 rrr = 2.0 y WW = 2 w1=2 w2=2 2.0 2019-07-03 17:52:00
1 2019-07-09 06:00:00 rrr = 0.6 y WW = 2 w1=1 w2=1 0.6 2019-07-09 05:52:00
1 2019-07-18 00:00:00 rrr = 0.4 y WW = 1 w1=2 w2=1 0.4 2019-07-17 23:56:00
1 2019-07-18 06:00:00 rrr = 0.2 y WW = 2 w1=2 w2=2 0.2 2019-07-18 05:53:00
1 2019-07-19 00:00:00 rrr = trazas y WW = 2 w1=1 w2=1 0.0 2019-07-18 23:55:00
1 2019-07-21 06:00:00 rrr = 4.0 y WW = 2 w1=1 w2=1 4.0 2019-07-21 05:52:00
1 2019-07-22 06:00:00 rrr = 0.6 y WW = 2 w1=2 w2=2 0.6 2019-07-22 05:52:00
1 2019-07-31 06:00:00 rrr = 0.2 y WW = 1 w1=2 w2=2 0.2 2019-07-31 05:53:00
1 2019-08-06 06:00:00 rrr = 2.2 y WW = 2 w1=2 w2=2 2.2 2019-08-06 05:51:00
1 2019-08-06 18:00:00 rrr = 0.2 y WW = 1 w1=2 w2=2 0.2 2019-08-06 17:55:00
1 2019-08-07 12:00:00 rrr = 0.2 y WW = 10 w1=4 w2=4 0.2 2019-08-07 11:58:00
1 2019-08-21 12:00:00 rrr = 1.2 y WW = 10 w1=2 w2=2 1.2 2019-08-21 11:53:00
1 2019-08-25 18:00:00 rrr = 0.2 y WW = 2 w1=2 w2=2 0.2 2019-08-25 17:55:00
1 2019-08-27 00:00:00 rrr = 0.4 y WW = 2 w1=2 w2=2 0.4 2019-08-26 23:59:00
1 2019-08-29 00:00:00 rrr = trazas y WW = 1 w1=1 w2=1 0.0 2019-08-28 23:53:00
1 2019-09-10 00:00:00 rrr = 0.4 y WW = 2 w1=2 w2=2 0.4 2019-09-09 23:52:00
1 2019-09-11 06:00:00 rrr = trazas y WW = 2 w1=2 w2=2 0.0 2019-09-11 05:54:00
1 2019-09-12 18:00:00 rrr = trazas y WW = 2 w1=2 w2=2 0.0 2019-09-12 17:55:00
1 2019-09-19 06:00:00 rrr = 1.8 y WW = 2 w1=1 w2=1 1.8 2019-09-19 05:53:00
1 2019-09-19 12:00:00 rrr = s/p y WW = 2 w1=6 w2=2 0.0 2019-09-19 11:55:00
1 2019-09-19 18:00:00 rrr = trazas y WW = 2 w1=2 w2=2 0.0 2019-09-19 17:53:00
1 2019-09-30 06:00:00 rrr = 2.4 y WW = 0 w1=2 w2=0 2.4 2019-09-30 05:52:00
1 2019-10-12 00:00:00 rrr = trazas y WW = 2 w1=2 w2=2 0.0 2019-10-11 23:55:00
1 2019-10-15 06:00:00 rrr = s/p y WW = 2 w1=6 w2=2 0.0 2019-10-15 05:54:00
1 2019-10-27 06:00:00 rrr = trazas y WW = 2 w1=2 w2=2 0.0 2019-10-27 05:54:00
1 2019-10-28 12:00:00 rrr = s/p y WW = 1 w1=8 w2=2 0.0 2019-10-28 11:57:00
1 2019-11-04 18:00:00 rrr = 0.6 y WW = 1 w1=2 w2=0 0.6 2019-11-04 17:52:00
1 2019-11-16 00:00:00 rrr = 0.2 y WW = 2 w1=2 w2=2 0.2 2019-11-15 23:56:00
1 2019-11-17 18:00:00 rrr = trazas y WW = 2 w1=2 w2=2 0.0 2019-11-17 17:53:00
1 2019-11-20 06:00:00 rrr = trazas y WW = 3 w1=1 w2=1 0.0 2019-11-20 05:54:00
1 2019-11-24 00:00:00 rrr = trazas y WW = 2 w1=2 w2=2 0.0 2019-11-23 23:53:00
1 2019-11-24 06:00:00 rrr = s/p y WW = 2 w1=8 w2=2 0.0 2019-11-24 05:51:00
1 2019-11-25 00:00:00 rrr = 0.6 y WW = 1 w1=2 w2=2 0.6 2019-11-25 23:59:00
1 2019-11-27 12:00:00 rrr = 0.4 y WW = 0 w1=2 w2=2 0.4 2019-11-27 11:57:00
1 2019-12-08 06:00:00 rrr = trazas y WW = 2 w1=0 w2=0 0.0 2019-12-08 05:54:00
1 2019-12-11 12:00:00 rrr = s/p y WW = 51 w1=2 w2=2 0.0 2019-12-11 11:57:00
1 2019-12-11 18:00:00 rrr = 1.0 y WW = 1 w1=2 w2=2 1.0 2019-12-11 17:53:00
1 2019-12-28 06:00:00 rrr = 1.0 y WW = 2 w1=2 w2=2 1.0 2019-12-28 05:55:00
1 2020-01-24 06:00:00 rrr = trazas y WW = 0 w1=0 w2=0 0.0 2020-01-24 05:54:00
1 2020-02-06 12:00:00 rrr = trazas y WW = 2 w1=4 w2=0 0.0 2020-02-06 11:59:00
1 2020-02-17 12:00:00 rrr = 0.8 y WW = 1 w1=4 w2=1 0.8 2020-02-17 11:57:00
1 2020-03-08 06:00:00 rrr = trazas y WW = 2 w1=0 w2=0 0.0 2020-03-08 05:53:00
1 2020-03-15 12:00:00 rrr = trazas y WW = 2 w1=4 w2=0 0.0 2020-03-15 11:52:00
1 2020-04-16 18:00:00 rrr = trazas y WW = 2 w1=2 w2=2 0.0 2020-04-16 17:58:00
1 2020-04-25 00:00:00 rrr = 0.4 y WW = 1 w1=2 w2=2 0.4 2020-04-24 23:54:00
1 2020-04-27 12:00:00 rrr = 0.2 y WW = 2 w1=1 w2=1 0.2 2020-04-27 11:51:00
1 2020-05-03 18:00:00 rrr = 0.2 y WW = 2 w1=2 w2=1 0.2 2020-05-03 17:50:00
1 2020-05-06 12:00:00 rrr = trazas y WW = 2 w1=0 w2=0 0.0 2020-05-06 11:52:00
1 2020-05-12 18:00:00 rrr = trazas y WW = 1 w1=4 w2=4 0.0 2020-05-12 17:59:00
1 2020-05-19 18:00:00 rrr = 1.6 y WW = 1 w1=2 w2=2 1.6 2020-05-19 17:52:00
1 2020-06-05 00:00:00 rrr = trazas y WW = 2 w1=0 w2=0 0.0 2020-06-04 23:59:00
1 2020-06-10 18:00:00 rrr = s/p y WW = 2 w1=8 w2=2 0.0 2020-06-10 17:56:00
1 2020-06-19 12:00:00 rrr = s/p y WW = 2 w1=8 w2=1 0.0 2020-06-19 11:51:00
1 2020-06-24 18:00:00 rrr = 0.2 y WW = 2 w1=2 w2=2 0.2 2020-06-24 17:52:00
1 2020-06-25 18:00:00 rrr = trazas y WW = 2 w1=2 w2=2 0.0 2020-06-25 17:49:00
1 2020-06-28 18:00:00 rrr = s/p y WW = 1 w1=8 w2=1 0.0 2020-06-28 17:55:00
1 2020-07-04 18:00:00 rrr = s/p y WW = 1 w1=8 w2=1 0.0 2020-07-04 17:49:00
1 2020-07-19 12:00:00 rrr = s/p y WW = 2 w1=8 w2=1 0.0 2020-07-19 11:52:00
1 2020-07-26 18:00:00 rrr = 2.8 y WW = 2 w1=2 w2=2 2.8 2020-07-26 17:53:00
1 2020-08-26 18:00:00 rrr = 0.2 y WW = 2 w1=2 w2=2 0.2 2020-08-26 17:55:00
1 2020-08-30 12:00:00 rrr = trazas y WW = 2 w1=4 w2=4 0.0 2020-08-30 11:56:00
1 2020-10-01 18:00:00 rrr = 0.2 y WW = 2 w1=2 w2=2 0.2 2020-10-01 17:54:00
1 2020-10-27 12:00:00 rrr = 0.2 y WW = 3 w1=4 w2=2 0.2 2020-10-27 11:54:00
1 2020-11-04 12:00:00 rrr = 1.2 y WW = 3 w1=2 w2=2 1.2 2020-11-04 11:54:00
1 2020-11-13 18:00:00 rrr = s/p y WW = 2 w1=8 w2=2 0.0 2020-11-13 17:57:00
1 2020-12-03 18:00:00 rrr = trazas y WW = 2 w1=0 w2=0 0.0 2020-12-03 17:55:00
1 2020-12-08 18:00:00 rrr = 0.2 y WW = 2 w1=2 w2=2 0.2 2020-12-08 17:54:00
1 2020-12-23 12:00:00 rrr = trazas y WW = 2 w1=4 w2=4 0.0 2020-12-23 11:57:00
1 2021-01-15 18:00:00 rrr = 3.2 y WW = 2 w1=2 w2=2 3.2 2021-01-15 17:50:00
1 2021-01-30 12:00:00 rrr = s/p y WW = 2 w1=8 w2=2 0.0 2021-01-30 11:55:00
1 2021-02-09 00:00:00 rrr = trazas y WW = 2 w1=0 w2=0 0.0 2021-02-08 23:57:00
1 2021-03-20 18:00:00 rrr = trazas y WW = 2 w1=1 w2=1 0.0 2021-03-20 17:53:00
1 2021-03-22 12:00:00 rrr = s/p y WW = 50 w1=5 w2=2 0.0 2021-03-22 11:52:00
1 2021-03-22 18:00:00 rrr = s/p y WW = 2 w1=5 w2=1 0.0 2021-03-22 17:54:00
1 2021-04-06 18:00:00 rrr = s/p y WW = 2 w1=6 w2=2 0.0 2021-04-06 17:53:00
1 2021-04-07 00:00:00 rrr = 1.6 y WW = 1 w1=2 w2=2 1.6 2021-04-06 23:54:00
1 2021-05-19 18:00:00 rrr = 0.8 y WW = 2 w1=2 w2=2 0.8 2021-05-19 17:53:00
1 2021-05-21 00:00:00 rrr = 0.2 y WW = 1 w1=2 w2=1 0.2 2021-05-20 23:55:00
1 2021-05-24 00:00:00 rrr = 0.6 y WW = 2 w1=2 w2=2 0.6 2021-05-23 23:57:00
1 2021-05-24 18:00:00 rrr = 0.2 y WW = 2 w1=2 w2=2 0.2 2021-05-24 17:55:00
1 2021-05-25 12:00:00 rrr = 0.8 y WW = 10 w1=2 w2=2 0.8 2021-05-25 11:53:00
1 2021-05-30 00:00:00 rrr = 0.4 y WW = 2 w1=2 w2=2 0.4 2021-05-29 23:53:00
1 2021-05-30 18:00:00 rrr = 0.2 y WW = 2 w1=2 w2=2 0.2 2021-05-30 17:49:00
1 2021-06-17 18:00:00 rrr = s/p y WW = 0 w1=7 w2=0 0.0 2021-06-17 17:54:00
1 2021-06-21 18:00:00 rrr = s/p y WW = 10 w1=8 w2=6 0.0 2021-06-21 17:50:00
1 2021-06-24 00:00:00 rrr = trazas y WW = 2 w1=2 w2=2 0.0 2021-06-23 23:53:00
1 2021-07-13 18:00:00 rrr = trazas y WW = 10 w1=4 w2=4 0.0 2021-07-13 17:52:00
1 2021-07-17 00:00:00 rrr = s/p y WW = 0 w1=6 w2=0 0.0 2021-07-16 23:58:00
1 2021-07-26 00:00:00 rrr = 0.4 y WW = 1 w1=1 w2=0 0.4 2021-07-25 23:54:00
1 2021-07-29 00:00:00 rrr = trazas y WW = 2 w1=0 w2=0 0.0 2021-07-28 23:57:00
1 2021-07-30 18:00:00 rrr = s/p y WW = 60 w1=5 w2=2 0.0 2021-07-30 17:57:00
1 2021-07-31 00:00:00 rrr = s/p y WW = 2 w1=6 w2=5 0.0 2021-07-30 23:57:00
1 2021-08-16 18:00:00 rrr = s/p y WW = 0 w1=8 w2=2 0.0 2021-08-16 17:52:00
1 2021-08-17 00:00:00 rrr = 0.2 y WW = 0 w1=2 w2=1 0.2 2021-08-16 23:57:00
1 2021-08-20 18:00:00 rrr = 0.2 y WW = 1 w1=2 w2=2 0.2 2021-08-20 17:54:00
1 2021-08-21 00:00:00 rrr = s/p y WW = 51 w1=2 w2=2 0.0 2021-08-20 23:55:00
1 2021-08-28 12:00:00 rrr = 0.6 y WW = 2 w1=2 w2=2 0.6 2021-08-28 11:54:00
1 2021-09-07 00:00:00 rrr = 0.2 y WW = 1 w1=2 w2=2 0.2 2021-09-06 23:56:00
1 2021-09-21 12:00:00 rrr = trazas y WW = 2 w1=0 w2=0 0.0 2021-09-21 11:52:00
1 2021-10-01 12:00:00 rrr = trazas y WW = 2 w1=2 w2=2 0.0 2021-10-01 11:54:00
1 2021-10-02 12:00:00 rrr = 4.2 y WW = 2 w1=0 w2=0 4.2 2021-10-02 11:51:00
1 2021-10-06 18:00:00 rrr = trazas y WW = 0 w1=0 w2=0 0.0 2021-10-06 17:53:00
1 2021-10-07 06:00:00 rrr = trazas y WW = 0 w1=0 w2=0 0.0 2021-10-07 05:55:00
1 2021-10-08 18:00:00 rrr = trazas y WW = 2 w1=0 w2=0 0.0 2021-10-08 17:52:00
1 2021-10-20 18:00:00 rrr = s/p y WW = 2 w1=5 w2=2 0.0 2021-10-20 17:54:00
1 2021-10-23 18:00:00 rrr = s/p y WW = 50 w1=5 w2=2 0.0 2021-10-23 17:55:00
1 2021-10-24 00:00:00 rrr = s/p y WW = 1 w1=8 w2=2 0.0 2021-10-23 23:54:00
1 2021-10-25 00:00:00 rrr = s/p y WW = 2 w1=5 w2=2 0.0 2021-10-24 23:53:00
1 2021-10-26 00:00:00 rrr = 0.6 y WW = 1 w1=2 w2=1 0.6 2021-10-25 23:55:00
1 2021-10-31 18:00:00 rrr = trazas y WW = 2 w1=0 w2=0 0.0 2021-10-31 17:54:00
1 2021-11-05 00:00:00 rrr = 0.2 y WW = 1 w1=1 w2=0 0.2 2021-11-04 23:53:00
1 2021-11-14 00:00:00 rrr = 0.2 y WW = 2 w1=2 w2=2 0.2 2021-11-13 23:53:00
1 2021-11-15 00:00:00 rrr = 2.4 y WW = 1 w1=2 w2=2 2.4 2021-11-14 23:54:00
1 2021-11-18 12:00:00 rrr = trazas y WW = 2 w1=2 w2=2 0.0 2021-11-18 11:54:00
1 2021-11-25 00:00:00 rrr = trazas y WW = 2 w1=2 w2=2 0.0 2021-11-24 23:53:00
1 2021-12-07 12:00:00 rrr = 0.6 y WW = 2 w1=2 w2=2 0.6 2021-12-07 11:56:00
1 2021-12-12 12:00:00 rrr = 0.2 y WW = 2 w1=2 w2=2 0.2 2021-12-12 11:54:00
1 2021-12-25 18:00:00 rrr = trazas y WW = 2 w1=0 w2=0 0.0 2021-12-25 17:51:00
1 2022-01-03 18:00:00 rrr = 1.4 y WW = 2 w1=2 w2=2 1.4 2022-01-03 17:56:00
1 2019-01-20 12:00:00 ff < 19kt y ((ww >= 31 y ww <= 35) o (ww == 37 o ww == 39 o ww >= 98))) 2019-01-20 11:55:00
1 2019-04-07 06:00:00 ts > 3.0 y ( (ww >= 48 y ww <= 49) o (ww >= 56 y ww <= 57) o (ww >=66 y ww <= 67)) 48 2019-04-07 05:55:00
1 2019-04-12 21:00:00 ts > 3.0 y ( (ww >= 48 y ww <= 49) o (ww >= 56 y ww <= 57) o (ww >=66 y ww <= 67)) 66 2019-04-12 20:54:00
1 2019-04-13 00:00:00 ts > 3.0 y ( (ww >= 48 y ww <= 49) o (ww >= 56 y ww <= 57) o (ww >=66 y ww <= 67)) 67 2019-04-12 23:53:00
1 2019-04-25 12:00:00 ts > 3.0 y ( (ww >= 48 y ww <= 49) o (ww >= 56 y ww <= 57) o (ww >=66 y ww <= 67)) 66 2019-04-25 11:55:00
1 2020-09-10 12:00:00 ts > 3.0 y ( (ww >= 48 y ww <= 49) o (ww >= 56 y ww <= 57) o (ww >=66 y ww <= 67)) 56 2020-09-10 11:56:00
1 2021-04-06 15:00:00 ts > 3.0 y ( (ww >= 48 y ww <= 49) o (ww >= 56 y ww <= 57) o (ww >=66 y ww <= 67)) 57 2021-04-06 14:54:00
1 2021-05-19 15:00:00 ts > 12.0 y ( (ww >= 68 y ww <= 69) o (ww >= 83 y ww <= 84)) 83 2021-05-19 14:53:00
1 2021-08-02 15:00:00 ts > 3.0 y ( (ww >= 48 y ww <= 49) o (ww >= 56 y ww <= 57) o (ww >=66 y ww <= 67)) 49 2021-08-02 14:55:00
Errores del Nivel 419
Nivel Fecha del Dato Descripción Información Error Fecha Ingreso
2 2017-05-04 22:00:00 Variación horaria de Intensidad del viento fuera de rango (1 hora Antes) 40 - 7 2017-05-04 21:52:00
2 2017-05-04 23:00:00 Variación horaria de Intensidad del viento fuera de rango (1 hora Antes) 1 - 40 2017-05-04 22:55:00
2 2020-09-20 00:00:00 Temperatura 18.7 del 19-09-2020 20:00, Mayor que la Máxima 18.6 20-09-2020 00:00 18.7 -- 18.6 2020-09-20 00:20:00
2 2021-11-24 00:00:00 Temperatura 25.6 del 23-11-2021 18:00, Mayor que la Máxima 25.4 24-11-2021 00:00 25.6 -- 25.4 2021-11-23 23:52:00
Errores del Nivel 4
Informe generado el 24-07-2024 12:12
Requerimiento: RE6001